sensor_id;sensor_type;location;lat;lon;timestamp;pressure;altitude;pressure_sealevel;temperature;humidity
113;BME280;45999;48.808;9.182;2023-07-20T00:01:05;97932.56;;;20.11;63.66
113;BME280;45999;48.808;9.182;2023-07-20T00:03:32;97936.09;;;20.07;63.33
113;BME280;45999;48.808;9.182;2023-07-20T00:05:58;97940.50;;;19.98;63.96
113;BME280;45999;48.808;9.182;2023-07-20T00:08:25;97945.56;;;19.99;62.52
113;BME280;45999;48.808;9.182;2023-07-20T00:10:51;97946.47;;;19.90;63.33
113;BME280;45999;48.808;9.182;2023-07-20T00:13:17;97941.63;;;19.87;62.65
113;BME280;45999;48.808;9.182;2023-07-20T00:15:46;97941.38;;;19.83;62.01
113;BME280;45999;48.808;9.182;2023-07-20T00:18:12;97938.66;;;19.88;60.82
113;BME280;45999;48.808;9.182;2023-07-20T00:20:40;97943.31;;;19.77;59.21
113;BME280;45999;48.808;9.182;2023-07-20T00:23:06;97942.56;;;19.72;59.83
113;BME280;45999;48.808;9.182;2023-07-20T00:25:33;97949.00;;;19.71;58.69
113;BME280;45999;48.808;9.182;2023-07-20T00:27:59;97941.25;;;19.59;59.97
113;BME280;45999;48.808;9.182;2023-07-20T00:30:26;97947.66;;;19.73;57.22
113;BME280;45999;48.808;9.182;2023-07-20T00:32:52;97936.59;;;19.75;56.53
113;BME280;45999;48.808;9.182;2023-07-20T00:35:19;97937.91;;;19.77;56.16
113;BME280;45999;48.808;9.182;2023-07-20T00:37:45;97931.78;;;19.67;56.09
113;BME280;45999;48.808;9.182;2023-07-20T00:40:12;97936.91;;;19.68;57.11
113;BME280;45999;48.808;9.182;2023-07-20T00:42:38;97937.44;;;19.71;55.26
113;BME280;45999;48.808;9.182;2023-07-20T00:45:05;97946.13;;;19.63;57.79
113;BME280;45999;48.808;9.182;2023-07-20T00:47:32;97940.47;;;19.59;56.98
113;BME280;45999;48.808;9.182;2023-07-20T00:49:59;97946.34;;;19.66;56.56
113;BME280;45999;48.808;9.182;2023-07-20T00:52:27;97943.22;;;19.54;57.13
113;BME280;45999;48.808;9.182;2023-07-20T00:54:53;97946.19;;;19.52;58.62
113;BME280;45999;48.808;9.182;2023-07-20T00:57:22;97949.44;;;19.44;58.48
113;BME280;45999;48.808;9.182;2023-07-20T00:59:50;97953.28;;;19.33;58.84
113;BME280;45999;48.808;9.182;2023-07-20T01:02:16;97958.38;;;19.35;58.49
113;BME280;45999;48.808;9.182;2023-07-20T01:04:43;97958.13;;;19.31;58.91
113;BME280;45999;48.808;9.182;2023-07-20T01:07:17;97956.25;;;19.22;59.25
113;BME280;45999;48.808;9.182;2023-07-20T01:12:47;97949.28;;;19.16;58.92
113;BME280;45999;48.808;9.182;2023-07-20T01:15:14;97946.09;;;19.09;59.00
113;BME280;45999;48.808;9.182;2023-07-20T01:17:40;97954.16;;;19.04;60.95
113;BME280;45999;48.808;9.182;2023-07-20T01:20:08;97942.34;;;19.00;59.44
113;BME280;45999;48.808;9.182;2023-07-20T01:22:56;97949.63;;;18.94;60.14
113;BME280;45999;48.808;9.182;2023-07-20T01:31:13;97953.13;;;18.90;61.34
113;BME280;45999;48.808;9.182;2023-07-20T01:33:40;97959.38;;;18.80;60.85
113;BME280;45999;48.808;9.182;2023-07-20T01:36:08;97952.63;;;18.83;60.66
113;BME280;45999;48.808;9.182;2023-07-20T01:38:36;97957.22;;;18.82;60.42
113;BME280;45999;48.808;9.182;2023-07-20T01:41:03;97955.06;;;18.74;61.65
113;BME280;45999;48.808;9.182;2023-07-20T01:43:30;97957.22;;;18.77;61.10
113;BME280;45999;48.808;9.182;2023-07-20T01:45:56;97960.47;;;18.79;61.45
113;BME280;45999;48.808;9.182;2023-07-20T01:48:22;97956.41;;;18.72;62.33
113;BME280;45999;48.808;9.182;2023-07-20T01:50:49;97955.09;;;18.69;61.85
113;BME280;45999;48.808;9.182;2023-07-20T01:53:15;97959.41;;;18.70;61.85
113;BME280;45999;48.808;9.182;2023-07-20T01:55:41;97957.78;;;18.64;62.42
113;BME280;45999;48.808;9.182;2023-07-20T01:58:08;97948.09;;;18.63;62.98
113;BME280;45999;48.808;9.182;2023-07-20T02:00:37;97954.31;;;18.59;63.84
113;BME280;45999;48.808;9.182;2023-07-20T02:03:03;97951.34;;;18.50;64.24
113;BME280;45999;48.808;9.182;2023-07-20T02:05:29;97955.66;;;18.46;63.70
113;BME280;45999;48.808;9.182;2023-07-20T02:07:56;97952.19;;;18.46;63.49
113;BME280;45999;48.808;9.182;2023-07-20T02:10:22;97951.91;;;18.42;63.71
113;BME280;45999;48.808;9.182;2023-07-20T02:12:49;97952.97;;;18.41;64.98
113;BME280;45999;48.808;9.182;2023-07-20T02:15:15;97950.84;;;18.38;64.93
113;BME280;45999;48.808;9.182;2023-07-20T02:17:42;97950.28;;;18.31;64.40
113;BME280;45999;48.808;9.182;2023-07-20T02:20:09;97959.69;;;18.29;64.84
113;BME280;45999;48.808;9.182;2023-07-20T02:22:36;97960.50;;;18.24;64.87
113;BME280;45999;48.808;9.182;2023-07-20T02:25:07;97957.81;;;18.29;65.12
113;BME280;45999;48.808;9.182;2023-07-20T02:27:34;97953.50;;;18.28;65.83
113;BME280;45999;48.808;9.182;2023-07-20T02:30:00;97949.72;;;18.24;65.45
113;BME280;45999;48.808;9.182;2023-07-20T02:32:28;97954.59;;;18.17;66.72
113;BME280;45999;48.808;9.182;2023-07-20T02:34:54;97946.25;;;18.19;65.45
113;BME280;45999;48.808;9.182;2023-07-20T02:37:20;97952.44;;;18.14;66.05
113;BME280;45999;48.808;9.182;2023-07-20T02:39:47;97949.47;;;18.16;66.75
113;BME280;45999;48.808;9.182;2023-07-20T02:42:13;97949.22;;;18.12;66.29
113;BME280;45999;48.808;9.182;2023-07-20T02:44:40;97952.69;;;18.08;67.39
113;BME280;45999;48.808;9.182;2023-07-20T02:47:06;97955.94;;;18.10;67.17
113;BME280;45999;48.808;9.182;2023-07-20T02:49:32;97956.72;;;18.00;67.88
113;BME280;45999;48.808;9.182;2023-07-20T02:51:59;97958.34;;;17.96;67.59
113;BME280;45999;48.808;9.182;2023-07-20T02:54:25;97957.81;;;17.99;67.84
113;BME280;45999;48.808;9.182;2023-07-20T02:56:51;97964.28;;;17.93;69.28
113;BME280;45999;48.808;9.182;2023-07-20T02:59:18;97966.97;;;17.88;68.95
113;BME280;45999;48.808;9.182;2023-07-20T03:01:44;97966.13;;;17.78;69.72
113;BME280;45999;48.808;9.182;2023-07-20T03:04:11;97971.22;;;17.74;69.51
113;BME280;45999;48.808;9.182;2023-07-20T03:06:37;97971.78;;;17.76;70.89
113;BME280;45999;48.808;9.182;2023-07-20T03:09:04;97975.78;;;17.64;70.78
113;BME280;45999;48.808;9.182;2023-07-20T03:11:32;97980.34;;;17.68;70.28
113;BME280;45999;48.808;9.182;2023-07-20T03:13:59;97967.72;;;17.69;69.68
113;BME280;45999;48.808;9.182;2023-07-20T03:16:25;97973.09;;;17.69;70.25
113;BME280;45999;48.808;9.182;2023-07-20T03:18:52;97975.25;;;17.67;71.04
113;BME280;45999;48.808;9.182;2023-07-20T03:21:18;97972.53;;;17.52;71.94
113;BME280;45999;48.808;9.182;2023-07-20T03:23:44;97976.28;;;17.51;72.38
113;BME280;45999;48.808;9.182;2023-07-20T03:26:11;97976.31;;;17.61;72.78
113;BME280;45999;48.808;9.182;2023-07-20T03:28:37;97980.31;;;17.53;72.80
113;BME280;45999;48.808;9.182;2023-07-20T03:31:04;97989.16;;;17.49;72.35
113;BME280;45999;48.808;9.182;2023-07-20T03:33:31;97981.91;;;17.44;73.09
113;BME280;45999;48.808;9.182;2023-07-20T03:35:59;97983.53;;;17.45;72.57
113;BME280;45999;48.808;9.182;2023-07-20T03:38:26;97981.09;;;17.44;73.42
113;BME280;45999;48.808;9.182;2023-07-20T03:40:54;97986.13;;;17.30;75.94
113;BME280;45999;48.808;9.182;2023-07-20T03:43:22;97985.59;;;17.33;75.62
113;BME280;45999;48.808;9.182;2023-07-20T03:45:49;97988.25;;;17.28;76.75
113;BME280;45999;48.808;9.182;2023-07-20T03:48:16;97983.38;;;17.20;76.72
113;BME280;45999;48.808;9.182;2023-07-20T03:50:47;97991.72;;;17.19;76.53
113;BME280;45999;48.808;9.182;2023-07-20T03:53:14;97990.66;;;17.25;76.19
113;BME280;45999;48.808;9.182;2023-07-20T03:55:44;97985.81;;;17.22;76.44
113;BME280;45999;48.808;9.182;2023-07-20T03:58:12;97984.47;;;17.19;76.04
113;BME280;45999;48.808;9.182;2023-07-20T04:00:38;97986.06;;;17.20;76.82
113;BME280;45999;48.808;9.182;2023-07-20T04:03:05;97990.44;;;17.31;76.77
113;BME280;45999;48.808;9.182;2023-07-20T04:05:31;97995.78;;;17.26;77.00
113;BME280;45999;48.808;9.182;2023-07-20T04:07:58;97987.69;;;17.16;77.82
113;BME280;45999;48.808;9.182;2023-07-20T04:10:24;97988.25;;;17.23;77.36
113;BME280;45999;48.808;9.182;2023-07-20T04:12:51;97983.94;;;17.22;77.75
113;BME280;45999;48.808;9.182;2023-07-20T04:15:17;97989.84;;;17.24;78.24
113;BME280;45999;48.808;9.182;2023-07-20T04:17:44;97993.63;;;17.28;78.36
113;BME280;45999;48.808;9.182;2023-07-20T04:20:11;97999.59;;;17.35;77.96
113;BME280;45999;48.808;9.182;2023-07-20T04:22:38;98006.63;;;17.46;77.79
113;BME280;45999;48.808;9.182;2023-07-20T04:25:04;98002.91;;;17.57;75.68
113;BME280;45999;48.808;9.182;2023-07-20T04:27:31;97993.53;;;17.65;76.00
113;BME280;45999;48.808;9.182;2023-07-20T04:30:00;97991.63;;;17.65;76.47
113;BME280;45999;48.808;9.182;2023-07-20T04:32:27;97993.81;;;17.68;76.03
113;BME280;45999;48.808;9.182;2023-07-20T04:34:53;97994.38;;;17.80;74.78
113;BME280;45999;48.808;9.182;2023-07-20T04:37:20;97994.13;;;17.82;76.67
113;BME280;45999;48.808;9.182;2023-07-20T04:39:46;98000.28;;;17.87;74.08
113;BME280;45999;48.808;9.182;2023-07-20T04:42:13;97996.56;;;17.93;72.48
113;BME280;45999;48.808;9.182;2023-07-20T04:44:39;97992.78;;;17.94;77.78
113;BME280;45999;48.808;9.182;2023-07-20T04:47:05;97995.47;;;17.99;74.92
113;BME280;45999;48.808;9.182;2023-07-20T04:49:33;97993.59;;;18.00;77.27
113;BME280;45999;48.808;9.182;2023-07-20T04:52:00;97999.25;;;18.03;75.40
113;BME280;45999;48.808;9.182;2023-07-20T04:54:27;97998.72;;;18.11;76.56
113;BME280;45999;48.808;9.182;2023-07-20T04:56:54;97992.25;;;18.17;73.90
113;BME280;45999;48.808;9.182;2023-07-20T04:59:20;97996.03;;;18.21;75.09
113;BME280;45999;48.808;9.182;2023-07-20T05:01:47;97999.28;;;18.33;73.21
113;BME280;45999;48.808;9.182;2023-07-20T05:04:13;97993.09;;;18.33;72.02
113;BME280;45999;48.808;9.182;2023-07-20T05:06:40;97998.72;;;18.46;70.95
113;BME280;45999;48.808;9.182;2023-07-20T05:09:06;98008.09;;;18.89;72.51
113;BME280;45999;48.808;9.182;2023-07-20T05:11:33;98003.91;;;19.41;70.43
113;BME280;45999;48.808;9.182;2023-07-20T05:13:59;98001.94;;;20.06;65.85
113;BME280;45999;48.808;9.182;2023-07-20T05:16:26;98004.34;;;20.46;62.76
113;BME280;45999;48.808;9.182;2023-07-20T05:18:53;98000.69;;;20.94;60.85
113;BME280;45999;48.808;9.182;2023-07-20T05:21:19;98002.66;;;21.12;59.77
113;BME280;45999;48.808;9.182;2023-07-20T05:23:46;97992.75;;;21.02;60.04
113;BME280;45999;48.808;9.182;2023-07-20T05:26:12;98007.50;;;20.58;62.40
113;BME280;45999;48.808;9.182;2023-07-20T05:28:38;98000.56;;;20.47;62.57
113;BME280;45999;48.808;9.182;2023-07-20T05:31:05;97995.69;;;20.49;61.57
113;BME280;45999;48.808;9.182;2023-07-20T05:33:31;97996.84;;;20.04;63.01
113;BME280;45999;48.808;9.182;2023-07-20T05:35:58;97997.38;;;20.01;63.28
113;BME280;45999;48.808;9.182;2023-07-20T05:38:24;97995.59;;;19.87;64.17
113;BME280;45999;48.808;9.182;2023-07-20T05:40:51;97993.81;;;19.72;65.03
113;BME280;45999;48.808;9.182;2023-07-20T05:43:17;97993.78;;;19.77;65.20
113;BME280;45999;48.808;9.182;2023-07-20T05:45:44;97996.44;;;19.82;65.24
113;BME280;45999;48.808;9.182;2023-07-20T05:48:11;97991.19;;;20.01;64.13
113;BME280;45999;48.808;9.182;2023-07-20T05:50:42;97995.50;;;19.97;63.80
113;BME280;45999;48.808;9.182;2023-07-20T05:53:08;97991.53;;;19.89;64.63
113;BME280;45999;48.808;9.182;2023-07-20T05:55:34;97991.75;;;19.98;64.23
113;BME280;45999;48.808;9.182;2023-07-20T05:58:01;97998.72;;;20.09;65.64
113;BME280;45999;48.808;9.182;2023-07-20T06:00:29;97995.66;;;20.20;65.27
113;BME280;45999;48.808;9.182;2023-07-20T06:02:55;98000.25;;;20.20;64.35
113;BME280;45999;48.808;9.182;2023-07-20T06:05:22;97996.44;;;20.26;64.04
113;BME280;45999;48.808;9.182;2023-07-20T06:07:49;97999.78;;;20.13;63.43
113;BME280;45999;48.808;9.182;2023-07-20T06:10:15;98006.91;;;20.32;64.28
113;BME280;45999;48.808;9.182;2023-07-20T06:12:41;98008.91;;;20.17;63.41
113;BME280;45999;48.808;9.182;2023-07-20T06:15:27;98006.97;;;20.27;62.78
113;BME280;45999;48.808;9.182;2023-07-20T06:17:55;98009.56;;;20.37;62.53
113;BME280;45999;48.808;9.182;2023-07-20T06:20:23;98009.19;;;20.49;63.63
113;BME280;45999;48.808;9.182;2023-07-20T06:22:49;98002.63;;;20.60;61.48
113;BME280;45999;48.808;9.182;2023-07-20T06:25:16;98003.81;;;20.49;61.78
113;BME280;45999;48.808;9.182;2023-07-20T06:27:43;98003.63;;;20.40;63.57
113;BME280;45999;48.808;9.182;2023-07-20T06:30:10;98007.47;;;20.29;63.38
113;BME280;45999;48.808;9.182;2023-07-20T06:32:37;98001.00;;;20.25;64.50
113;BME280;45999;48.808;9.182;2023-07-20T06:35:03;97998.56;;;20.29;65.16
113;BME280;45999;48.808;9.182;2023-07-20T06:37:30;98000.81;;;20.50;66.59
113;BME280;45999;48.808;9.182;2023-07-20T06:39:56;98003.16;;;20.62;64.75
113;BME280;45999;48.808;9.182;2023-07-20T06:42:22;98002.56;;;20.65;65.06
113;BME280;45999;48.808;9.182;2023-07-20T06:44:49;98000.84;;;20.79;64.25
113;BME280;45999;48.808;9.182;2023-07-20T06:47:15;98003.56;;;20.74;63.89
113;BME280;45999;48.808;9.182;2023-07-20T06:49:41;98000.81;;;20.50;63.33
113;BME280;45999;48.808;9.182;2023-07-20T06:52:08;98004.66;;;20.73;63.70
113;BME280;45999;48.808;9.182;2023-07-20T06:54:34;97999.25;;;20.73;63.29
113;BME280;45999;48.808;9.182;2023-07-20T06:57:00;98002.28;;;20.66;62.59
113;BME280;45999;48.808;9.182;2023-07-20T06:59:27;97990.44;;;20.62;62.69
113;BME280;45999;48.808;9.182;2023-07-20T07:01:53;97995.44;;;20.79;63.20
113;BME280;45999;48.808;9.182;2023-07-20T07:04:19;98002.72;;;20.78;63.13
113;BME280;45999;48.808;9.182;2023-07-20T07:06:46;98003.28;;;20.75;62.06
113;BME280;45999;48.808;9.182;2023-07-20T07:09:13;98000.13;;;20.68;61.37
113;BME280;45999;48.808;9.182;2023-07-20T07:11:40;98000.97;;;20.64;61.29
113;BME280;45999;48.808;9.182;2023-07-20T07:14:06;98002.19;;;20.76;61.88
113;BME280;45999;48.808;9.182;2023-07-20T07:16:32;97996.44;;;20.83;62.83
113;BME280;45999;48.808;9.182;2023-07-20T07:18:59;98000.84;;;20.79;61.35
113;BME280;45999;48.808;9.182;2023-07-20T07:21:25;97990.81;;;20.79;61.70
113;BME280;45999;48.808;9.182;2023-07-20T07:23:52;97994.34;;;20.80;61.71
113;BME280;45999;48.808;9.182;2023-07-20T07:26:22;97991.53;;;20.90;62.70
113;BME280;45999;48.808;9.182;2023-07-20T07:28:48;97997.13;;;20.98;61.61
113;BME280;45999;48.808;9.182;2023-07-20T07:31:15;97994.78;;;20.87;62.02
113;BME280;45999;48.808;9.182;2023-07-20T07:33:41;97996.75;;;20.81;59.97
113;BME280;45999;48.808;9.182;2023-07-20T07:36:08;97994.72;;;20.68;60.90
113;BME280;45999;48.808;9.182;2023-07-20T07:38:34;97993.47;;;20.56;60.04
113;BME280;45999;48.808;9.182;2023-07-20T07:41:00;97992.78;;;20.45;60.34
113;BME280;45999;48.808;9.182;2023-07-20T07:43:27;98001.00;;;20.59;61.05
113;BME280;45999;48.808;9.182;2023-07-20T07:45:54;97985.94;;;20.81;60.95
113;BME280;45999;48.808;9.182;2023-07-20T07:48:21;97993.28;;;20.76;59.81
113;BME280;45999;48.808;9.182;2023-07-20T07:50:47;97992.09;;;20.87;58.55
113;BME280;45999;48.808;9.182;2023-07-20T07:53:15;97978.84;;;21.14;59.73
113;BME280;45999;48.808;9.182;2023-07-20T07:55:41;97994.84;;;21.10;58.50
113;BME280;45999;48.808;9.182;2023-07-20T07:58:07;97982.16;;;21.29;58.05
113;BME280;45999;48.808;9.182;2023-07-20T08:00:34;97983.56;;;21.27;58.17
113;BME280;45999;48.808;9.182;2023-07-20T08:03:01;97981.00;;;21.35;59.97
113;BME280;45999;48.808;9.182;2023-07-20T08:05:27;97981.47;;;21.42;58.53
113;BME280;45999;48.808;9.182;2023-07-20T08:07:53;97989.94;;;21.36;58.13
113;BME280;45999;48.808;9.182;2023-07-20T08:10:20;97984.13;;;21.24;57.48
113;BME280;45999;48.808;9.182;2023-07-20T08:12:46;97984.56;;;21.54;56.35
113;BME280;45999;48.808;9.182;2023-07-20T08:15:13;97975.19;;;21.89;57.76
113;BME280;45999;48.808;9.182;2023-07-20T08:17:43;97974.66;;;22.24;55.16
113;BME280;45999;48.808;9.182;2023-07-20T08:20:10;97970.94;;;21.83;54.65
113;BME280;45999;48.808;9.182;2023-07-20T08:22:37;97969.63;;;21.99;55.40
113;BME280;45999;48.808;9.182;2023-07-20T08:25:05;97970.34;;;21.86;56.49
113;BME280;45999;48.808;9.182;2023-07-20T08:27:31;97983.75;;;21.77;55.63
113;BME280;45999;48.808;9.182;2023-07-20T08:29:58;97988.72;;;21.47;56.46
113;BME280;45999;48.808;9.182;2023-07-20T08:32:25;97990.47;;;21.14;57.61
113;BME280;45999;48.808;9.182;2023-07-20T08:34:52;97984.59;;;21.31;57.87
113;BME280;45999;48.808;9.182;2023-07-20T08:37:19;97990.56;;;21.51;57.41
113;BME280;45999;48.808;9.182;2023-07-20T08:39:45;97994.00;;;21.57;55.84
113;BME280;45999;48.808;9.182;2023-07-20T08:42:12;97988.81;;;21.60;56.23
113;BME280;45999;48.808;9.182;2023-07-20T08:44:42;97988.41;;;22.27;53.87
113;BME280;45999;48.808;9.182;2023-07-20T08:47:10;97978.25;;;22.33;54.09
113;BME280;45999;48.808;9.182;2023-07-20T08:49:39;97980.59;;;22.39;52.64
113;BME280;45999;48.808;9.182;2023-07-20T08:52:06;97978.59;;;22.13;53.37
113;BME280;45999;48.808;9.182;2023-07-20T08:54:33;97970.56;;;22.58;53.14
113;BME280;45999;48.808;9.182;2023-07-20T08:57:03;97976.34;;;22.01;52.56
113;BME280;45999;48.808;9.182;2023-07-20T08:59:31;97977.53;;;21.95;54.05
113;BME280;45999;48.808;9.182;2023-07-20T09:01:59;97972.97;;;22.09;55.25
113;BME280;45999;48.808;9.182;2023-07-20T09:04:26;97975.59;;;22.14;54.16
113;BME280;45999;48.808;9.182;2023-07-20T09:06:52;97975.69;;;22.09;52.54
113;BME280;45999;48.808;9.182;2023-07-20T09:09:18;97978.25;;;22.33;51.19
113;BME280;45999;48.808;9.182;2023-07-20T09:11:49;97961.88;;;22.43;49.80
113;BME280;45999;48.808;9.182;2023-07-20T09:14:16;97961.78;;;22.93;49.48
113;BME280;45999;48.808;9.182;2023-07-20T09:16:50;97984.78;;;22.50;48.41
113;BME280;45999;48.808;9.182;2023-07-20T09:19:17;97969.47;;;22.59;48.77
113;BME280;45999;48.808;9.182;2023-07-20T09:21:45;97964.19;;;22.81;47.36
113;BME280;45999;48.808;9.182;2023-07-20T09:24:13;97963.28;;;23.13;47.50
113;BME280;45999;48.808;9.182;2023-07-20T09:26:43;97974.97;;;23.13;48.78
113;BME280;45999;48.808;9.182;2023-07-20T09:29:10;97966.78;;;22.73;50.95
113;BME280;45999;48.808;9.182;2023-07-20T09:31:37;97972.59;;;22.16;50.49
113;BME280;45999;48.808;9.182;2023-07-20T09:34:05;97965.13;;;22.26;53.40
113;BME280;45999;48.808;9.182;2023-07-20T09:36:34;97970.13;;;22.33;49.86
113;BME280;45999;48.808;9.182;2023-07-20T09:39:02;97970.19;;;22.65;49.94
113;BME280;45999;48.808;9.182;2023-07-20T09:41:29;97964.09;;;23.13;47.75
113;BME280;45999;48.808;9.182;2023-07-20T09:43:55;97971.88;;;23.20;47.90
113;BME280;45999;48.808;9.182;2023-07-20T09:46:22;97956.88;;;23.09;47.52
113;BME280;45999;48.808;9.182;2023-07-20T09:48:52;97962.00;;;23.10;47.50
113;BME280;45999;48.808;9.182;2023-07-20T09:51:23;97957.66;;;22.96;47.29
113;BME280;45999;48.808;9.182;2023-07-20T09:53:52;97962.88;;;22.92;46.09
113;BME280;45999;48.808;9.182;2023-07-20T09:56:21;97954.03;;;22.87;46.64
113;BME280;45999;48.808;9.182;2023-07-20T09:58:48;97957.38;;;22.84;47.71
113;BME280;45999;48.808;9.182;2023-07-20T10:01:20;97963.91;;;22.83;43.83
113;BME280;45999;48.808;9.182;2023-07-20T10:03:51;97945.31;;;23.17;46.12
113;BME280;45999;48.808;9.182;2023-07-20T10:06:23;97944.31;;;23.40;45.16
113;BME280;45999;48.808;9.182;2023-07-20T10:08:56;97947.47;;;23.20;43.21
113;BME280;45999;48.808;9.182;2023-07-20T10:11:30;97950.41;;;23.59;43.82
113;BME280;45999;48.808;9.182;2023-07-20T10:13:59;97938.06;;;24.02;45.29
113;BME280;45999;48.808;9.182;2023-07-20T10:16:43;97948.69;;;24.34;41.52
113;BME280;45999;48.808;9.182;2023-07-20T10:19:17;97941.13;;;24.09;42.70
113;BME280;45999;48.808;9.182;2023-07-20T10:21:57;97934.53;;;23.66;41.30
113;BME280;45999;48.808;9.182;2023-07-20T10:24:27;97937.38;;;23.96;42.47
113;BME280;45999;48.808;9.182;2023-07-20T10:26:55;97936.34;;;23.57;42.48
113;BME280;45999;48.808;9.182;2023-07-20T10:29:23;97930.25;;;22.97;41.44
113;BME280;45999;48.808;9.182;2023-07-20T10:31:50;97923.69;;;23.52;42.75
113;BME280;45999;48.808;9.182;2023-07-20T10:34:16;97925.03;;;23.90;41.75
113;BME280;45999;48.808;9.182;2023-07-20T10:36:44;97926.75;;;23.73;39.54
113;BME280;45999;48.808;9.182;2023-07-20T10:39:41;97918.06;;;23.84;40.59
113;BME280;45999;48.808;9.182;2023-07-20T10:42:08;97927.06;;;24.07;39.35
113;BME280;45999;48.808;9.182;2023-07-20T10:44:39;97910.22;;;24.18;40.11
113;BME280;45999;48.808;9.182;2023-07-20T10:47:10;97914.16;;;23.90;37.96
113;BME280;45999;48.808;9.182;2023-07-20T10:49:59;97912.50;;;24.25;40.04
113;BME280;45999;48.808;9.182;2023-07-20T10:52:26;97909.06;;;24.11;38.21
113;BME280;45999;48.808;9.182;2023-07-20T10:54:52;97917.88;;;23.81;38.42
113;BME280;45999;48.808;9.182;2023-07-20T10:57:25;97916.88;;;23.77;39.86
113;BME280;45999;48.808;9.182;2023-07-20T10:59:51;97912.69;;;23.71;40.25
113;BME280;45999;48.808;9.182;2023-07-20T11:02:18;97907.91;;;23.54;39.13
113;BME280;45999;48.808;9.182;2023-07-20T11:04:46;97906.44;;;23.35;40.54
113;BME280;45999;48.808;9.182;2023-07-20T11:07:35;97906.34;;;23.40;41.27
113;BME280;45999;48.808;9.182;2023-07-20T11:10:15;97905.50;;;23.53;41.03
113;BME280;45999;48.808;9.182;2023-07-20T11:13:18;97910.41;;;24.22;38.21
113;BME280;45999;48.808;9.182;2023-07-20T11:15:46;97915.03;;;24.21;39.55
113;BME280;45999;48.808;9.182;2023-07-20T11:18:14;97905.22;;;24.12;37.28
113;BME280;45999;48.808;9.182;2023-07-20T11:20:40;97911.66;;;24.16;37.26
113;BME280;45999;48.808;9.182;2023-07-20T11:23:07;97906.47;;;24.28;37.06
113;BME280;45999;48.808;9.182;2023-07-20T11:25:39;97902.03;;;24.62;37.76
113;BME280;45999;48.808;9.182;2023-07-20T11:28:09;97911.34;;;24.70;36.89
113;BME280;45999;48.808;9.182;2023-07-20T11:30:39;97907.38;;;24.54;36.92
113;BME280;45999;48.808;9.182;2023-07-20T11:33:08;97895.53;;;24.19;37.53
113;BME280;45999;48.808;9.182;2023-07-20T11:35:36;97892.81;;;24.19;37.03
113;BME280;45999;48.808;9.182;2023-07-20T11:38:07;97895.78;;;24.62;37.57
113;BME280;45999;48.808;9.182;2023-07-20T11:40:34;97911.63;;;24.60;36.45
113;BME280;45999;48.808;9.182;2023-07-20T11:43:00;97895.94;;;24.13;36.79
113;BME280;45999;48.808;9.182;2023-07-20T11:45:28;97904.91;;;24.13;35.80
113;BME280;45999;48.808;9.182;2023-07-20T11:47:58;97907.22;;;24.50;35.90
113;BME280;45999;48.808;9.182;2023-07-20T11:50:25;97909.91;;;24.20;35.19
113;BME280;45999;48.808;9.182;2023-07-20T11:52:51;97895.81;;;24.18;36.03
113;BME280;45999;48.808;9.182;2023-07-20T11:55:18;97885.75;;;24.40;36.37
113;BME280;45999;48.808;9.182;2023-07-20T11:58:04;97874.78;;;24.23;35.20
113;BME280;45999;48.808;9.182;2023-07-20T12:00:31;97880.28;;;24.62;37.08
113;BME280;45999;48.808;9.182;2023-07-20T12:02:59;97893.38;;;24.60;34.90
113;BME280;45999;48.808;9.182;2023-07-20T12:05:25;97875.59;;;24.24;35.45
113;BME280;45999;48.808;9.182;2023-07-20T12:07:52;97877.06;;;24.30;35.73
113;BME280;45999;48.808;9.182;2023-07-20T12:10:26;97872.09;;;24.32;35.82
113;BME280;45999;48.808;9.182;2023-07-20T12:12:54;97863.28;;;24.57;35.57
113;BME280;45999;48.808;9.182;2023-07-20T12:15:24;97867.25;;;24.51;34.56
113;BME280;45999;48.808;9.182;2023-07-20T12:17:56;97862.56;;;24.73;35.09
113;BME280;45999;48.808;9.182;2023-07-20T12:22:56;97865.59;;;24.41;34.63
113;BME280;45999;48.808;9.182;2023-07-20T12:25:23;97858.97;;;24.56;35.22
113;BME280;45999;48.808;9.182;2023-07-20T12:27:49;97848.56;;;24.58;35.94
113;BME280;45999;48.808;9.182;2023-07-20T12:30:15;97853.97;;;24.88;35.46
113;BME280;45999;48.808;9.182;2023-07-20T12:32:42;97852.88;;;24.89;35.16
113;BME280;45999;48.808;9.182;2023-07-20T12:35:08;97856.13;;;25.17;36.17
113;BME280;45999;48.808;9.182;2023-07-20T12:37:36;97855.31;;;24.99;34.85
113;BME280;45999;48.808;9.182;2023-07-20T12:40:03;97853.97;;;24.88;34.48
113;BME280;45999;48.808;9.182;2023-07-20T12:42:29;97849.41;;;24.28;34.67
113;BME280;45999;48.808;9.182;2023-07-20T12:44:56;97842.00;;;24.50;35.80
113;BME280;45999;48.808;9.182;2023-07-20T12:47:22;97842.13;;;24.45;35.03
113;BME280;45999;48.808;9.182;2023-07-20T12:49:48;97835.75;;;24.80;35.83
113;BME280;45999;48.808;9.182;2023-07-20T12:52:15;97835.19;;;24.61;34.11
113;BME280;45999;48.808;9.182;2023-07-20T12:54:41;97837.97;;;24.78;33.68
113;BME280;45999;48.808;9.182;2023-07-20T12:57:08;97841.50;;;24.87;33.62
113;BME280;45999;48.808;9.182;2023-07-20T12:59:34;97829.22;;;24.51;34.35
113;BME280;45999;48.808;9.182;2023-07-20T13:02:01;97828.53;;;24.76;34.77
113;BME280;45999;48.808;9.182;2023-07-20T13:04:27;97825.31;;;24.74;32.84
113;BME280;45999;48.808;9.182;2023-07-20T13:06:54;97814.16;;;24.84;34.74
113;BME280;45999;48.808;9.182;2023-07-20T13:09:20;97811.28;;;24.89;35.16
113;BME280;45999;48.808;9.182;2023-07-20T13:11:47;97810.16;;;24.90;32.80
113;BME280;45999;48.808;9.182;2023-07-20T13:14:13;97806.19;;;24.96;32.66
113;BME280;45999;48.808;9.182;2023-07-20T13:16:39;97806.00;;;24.92;32.39
113;BME280;45999;48.808;9.182;2023-07-20T13:19:06;97800.47;;;25.23;34.76
113;BME280;45999;48.808;9.182;2023-07-20T13:21:32;97798.69;;;25.10;32.60
113;BME280;45999;48.808;9.182;2023-07-20T13:23:59;97803.78;;;25.11;31.33
113;BME280;45999;48.808;9.182;2023-07-20T13:26:25;97807.16;;;25.17;31.64
113;BME280;45999;48.808;9.182;2023-07-20T13:28:51;97807.81;;;25.14;31.42
113;BME280;45999;48.808;9.182;2023-07-20T13:31:18;97811.94;;;25.11;31.05
113;BME280;45999;48.808;9.182;2023-07-20T13:33:45;97810.22;;;25.24;32.60
113;BME280;45999;48.808;9.182;2023-07-20T13:36:12;97800.59;;;25.09;32.83